Time;durP1;ratioP1;P1;durP2;ratioP2;P2;SDS_P1;SDS_P2;PMS_P1;PMS_P2;Temp;Humidity;BMP_temperature;BMP_pressure;BME280_temperature;BME280_humidity;BME280_pressure;Samples;Min_cycle;Max_cycle;Signal;HPM_P1;HPM_P2
2022/08/22 00:01:27;;;;;;;3.67;3.33;;;17.90;59.80;;;;;;962284;147;27299;-76
2022/08/22 00:04:15;;;;;;;4.10;3.13;;;17.90;59.80;;;;;;964222;145;27308;-77
2022/08/22 00:06:44;;;;;;;3.30;3.00;;;17.90;60.00;;;;;;958693;147;27276;-76
2022/08/22 00:09:28;;;;;;;3.93;2.77;;;17.80;60.00;;;;;;962669;147;27273;-76
2022/08/22 00:11:56;;;;;;;4.55;2.90;;;17.80;60.30;;;;;;966532;147;27308;-77
2022/08/22 00:14:22;;;;;;;3.20;2.90;;;17.80;60.30;;;;;;957466;147;27691;-77
2022/08/22 00:16:54;;;;;;;3.60;2.90;;;17.70;60.40;;;;;;961735;147;27370;-77
2022/08/22 00:19:27;;;;;;;4.10;2.75;;;17.70;60.60;;;;;;962930;147;27370;-77
2022/08/22 00:22:08;;;;;;;4.00;2.87;;;17.70;60.60;;;;;;961805;147;27260;-77
2022/08/22 00:24:57;;;;;;;4.00;3.47;;;17.70;60.90;;;;;;961364;147;27382;-76
2022/08/22 00:27:34;;;;;;;2.93;2.53;;;17.70;61.00;;;;;;958330;144;27714;-76
2022/08/22 00:30:04;;;;;;;5.70;3.10;;;17.70;61.00;;;;;;925143;150;27420;-76
2022/08/22 00:32:36;;;;;;;3.57;3.27;;;17.70;61.30;;;;;;934216;150;27384;-76
2022/08/22 00:35:05;;;;;;;4.10;2.83;;;17.60;61.30;;;;;;934448;150;27339;-76
2022/08/22 00:37:41;;;;;;;3.10;2.87;;;17.60;61.50;;;;;;931534;149;27344;-76
2022/08/22 00:40:26;;;;;;;3.20;2.90;;;17.60;61.60;;;;;;938285;149;27291;-76
2022/08/22 00:43:01;;;;;;;2.80;2.53;;;17.60;61.60;;;;;;938281;149;27256;-77
2022/08/22 00:45:58;;;;;;;3.17;2.50;;;17.60;61.60;;;;;;940483;149;27208;-76
2022/08/22 00:48:43;;;;;;;4.03;2.90;;;17.60;61.70;;;;;;936533;149;27247;-77
2022/08/22 00:51:12;;;;;;;3.60;2.70;;;17.50;61.50;;;;;;938034;149;27276;-76
2022/08/22 00:54:00;;;;;;;3.77;3.45;;;17.50;61.60;;;;;;938041;149;27991;-76
2022/08/22 00:56:51;;;;;;;3.77;3.30;;;17.50;62.10;;;;;;939566;149;27203;-77
2022/08/22 00:59:36;;;;;;;4.57;2.77;;;17.40;61.90;;;;;;939225;149;27240;-76
2022/08/22 01:02:39;;;;;;;6.07;2.93;;;17.40;61.90;;;;;;938478;149;27381;-76
2022/08/22 01:05:17;;;;;;;3.63;3.23;;;17.30;62.10;;;;;;938173;149;27292;-77
2022/08/22 01:08:02;;;;;;;5.03;2.93;;;17.30;62.10;;;;;;939337;149;27265;-76
2022/08/22 01:10:35;;;;;;;3.63;3.00;;;17.20;62.40;;;;;;940699;149;27244;-76
2022/08/22 01:13:29;;;;;;;4.57;2.87;;;17.10;62.60;;;;;;937572;149;27337;-76
2022/08/22 01:15:55;;;;;;;4.33;3.50;;;17.10;62.80;;;;;;940978;149;27296;-77
2022/08/22 01:18:25;;;;;;;3.50;2.87;;;17.00;62.80;;;;;;936588;149;27780;-77
2022/08/22 01:21:22;;;;;;;4.13;2.90;;;17.00;63.30;;;;;;937664;148;27367;-77
2022/08/22 01:24:22;;;;;;;4.93;3.20;;;16.90;63.60;;;;;;938045;149;27418;-76
2022/08/22 01:27:07;;;;;;;3.20;3.00;;;16.90;63.50;;;;;;939084;151;27458;-76
2022/08/22 01:29:39;;;;;;;3.30;2.87;;;16.80;63.60;;;;;;937665;150;27628;-76
2022/08/22 01:32:18;;;;;;;4.53;3.17;;;16.80;63.80;;;;;;954004;148;27784;-76
2022/08/22 01:34:53;;;;;;;4.60;2.80;;;16.80;64.10;;;;;;953370;148;27412;-76
2022/08/22 01:37:38;;;;;;;3.33;2.77;;;16.70;64.10;;;;;;935876;150;27275;-76
2022/08/22 01:40:16;;;;;;;3.27;2.93;;;16.70;64.20;;;;;;935588;151;27395;-76
2022/08/22 01:42:43;;;;;;;3.62;3.05;;;16.70;64.20;;;;;;944232;149;27320;-76
2022/08/22 01:45:09;;;;;;;2.90;2.60;;;16.70;64.60;;;;;;949289;149;27335;-76
2022/08/22 01:47:54;;;;;;;3.80;2.73;;;16.70;64.90;;;;;;954265;148;27784;-76
2022/08/22 01:50:36;;;;;;;4.17;2.90;;;16.70;65.00;;;;;;933419;150;27255;-76
2022/08/22 01:53:02;;;;;;;3.15;2.85;;;16.70;64.90;;;;;;935761;151;27403;-76
2022/08/22 01:55:32;;;;;;;4.20;3.10;;;16.70;65.00;;;;;;924462;153;27470;-76
2022/08/22 01:57:59;;;;;;;2.57;2.37;;;16.70;65.30;;;;;;953741;148;27296;-76
2022/08/22 02:00:25;;;;;;;2.97;2.67;;;16.70;65.50;;;;;;957809;148;27333;-76
2022/08/22 02:02:54;;;;;;;3.55;2.77;;;16.60;65.50;;;;;;955812;148;27319;-76
2022/08/22 02:05:36;;;;;;;2.97;2.67;;;16.60;65.70;;;;;;954600;147;27316;-77
2022/08/22 02:08:21;;;;;;;3.20;2.90;;;16.60;65.80;;;;;;954848;148;28222;-77
2022/08/22 02:10:56;;;;;;;3.27;2.97;;;16.60;65.80;;;;;;956606;148;27969;-77
2022/08/22 02:13:34;;;;;;;3.50;3.20;;;16.60;65.80;;;;;;952317;149;27631;-76
2022/08/22 02:16:10;;;;;;;3.30;2.83;;;16.60;66.00;;;;;;952438;149;27383;-76
2022/08/22 02:18:51;;;;;;;3.00;2.80;;;16.60;66.10;;;;;;953331;149;27352;-76
2022/08/22 02:21:20;;;;;;;3.03;2.80;;;16.60;66.10;;;;;;938040;149;27998;-76
2022/08/22 02:23:56;;;;;;;3.93;3.00;;;16.60;66.10;;;;;;949065;149;27348;-76
2022/08/22 02:26:25;;;;;;;5.20;3.30;;;16.50;66.30;;;;;;960604;144;27451;-76
2022/08/22 02:28:56;;;;;;;3.33;2.80;;;16.50;66.40;;;;;;970989;144;27653;-76
2022/08/22 02:31:33;;;;;;;4.20;2.80;;;16.50;66.60;;;;;;969370;144;27325;-76
2022/08/22 02:34:00;;;;;;;4.23;2.73;;;16.50;66.90;;;;;;969193;144;27747;-76
2022/08/22 02:36:32;;;;;;;2.77;2.57;;;16.40;67.00;;;;;;970455;144;27279;-76
2022/08/22 02:39:07;;;;;;;4.50;2.60;;;16.40;67.10;;;;;;969436;144;27930;-75
2022/08/22 02:41:58;;;;;;;2.73;2.47;;;16.40;67.40;;;;;;967974;144;27455;-77
2022/08/22 02:44:28;;;;;;;3.23;2.93;;;16.40;67.30;;;;;;967984;144;27354;-77
2022/08/22 02:46:57;;;;;;;4.20;3.23;;;16.40;67.40;;;;;;968150;144;27372;-76
2022/08/22 02:49:33;;;;;;;3.13;2.73;;;16.40;67.80;;;;;;969364;144;27939;-75
2022/08/22 02:52:11;;;;;;;3.60;2.60;;;16.30;67.80;;;;;;970059;144;27399;-74
2022/08/22 02:54:38;;;;;;;3.43;3.13;;;16.30;67.90;;;;;;969912;144;27399;-75
2022/08/22 02:57:11;;;;;;;3.60;3.30;;;16.30;67.90;;;;;;968134;144;27447;-75
2022/08/22 02:59:56;;;;;;;3.83;3.53;;;16.30;68.10;;;;;;967398;144;27370;-75
2022/08/22 03:02:28;;;;;;;4.03;3.00;;;16.30;68.40;;;;;;967989;144;28395;-74
2022/08/22 03:04:55;;;;;;;3.67;3.10;;;16.20;68.50;;;;;;931710;144;27298;-75
2022/08/22 03:07:21;;;;;;;3.30;3.00;;;16.20;68.70;;;;;;968296;144;27275;-75
2022/08/22 03:09:54;;;;;;;4.23;2.90;;;16.20;68.80;;;;;;969952;144;27419;-75
2022/08/22 03:12:48;;;;;;;3.20;2.90;;;16.20;68.90;;;;;;969079;144;27345;-75
2022/08/22 03:15:33;;;;;;;6.87;3.13;;;16.20;68.90;;;;;;948664;148;27490;-75
2022/08/22 03:18:02;;;;;;;3.80;3.50;;;16.20;68.70;;;;;;961390;147;27367;-74
2022/08/22 03:20:34;;;;;;;4.10;3.07;;;16.20;68.80;;;;;;960998;148;27197;-74
2022/08/22 03:23:06;;;;;;;4.57;3.07;;;16.20;69.00;;;;;;961547;148;27258;-75
2022/08/22 03:25:48;;;;;;;3.07;2.77;;;16.20;69.10;;;;;;961681;145;27266;-75
2022/08/22 03:28:18;;;;;;;4.03;3.07;;;16.10;69.10;;;;;;944447;148;27291;-75
2022/08/22 03:30:44;;;;;;;3.90;3.50;;;16.10;69.20;;;;;;940070;148;27206;-75
2022/08/22 03:33:19;;;;;;;3.50;3.20;;;16.10;69.40;;;;;;942629;150;27265;-75
2022/08/22 03:35:46;;;;;;;3.93;3.07;;;16.00;69.50;;;;;;946527;150;27275;-75
2022/08/22 03:38:13;;;;;;;3.77;3.20;;;16.00;69.70;;;;;;944800;150;27264;-75
2022/08/22 03:40:51;;;;;;;3.60;3.07;;;16.00;70.00;;;;;;943665;150;27256;-75
2022/08/22 03:43:20;;;;;;;3.80;3.50;;;15.90;70.10;;;;;;940147;149;27228;-75
2022/08/22 03:45:53;;;;;;;3.23;2.90;;;15.90;70.30;;;;;;944468;149;27276;-75
2022/08/22 03:48:25;;;;;;;3.60;3.23;;;15.90;70.50;;;;;;946713;149;27212;-75
2022/08/22 03:51:13;;;;;;;4.70;3.47;;;15.90;70.80;;;;;;946590;149;27190;-75
2022/08/22 03:53:52;;;;;;;3.80;2.80;;;15.90;70.90;;;;;;944932;149;27846;-74
2022/08/22 03:56:25;;;;;;;3.90;3.30;;;15.90;70.70;;;;;;942913;149;27250;-74
2022/08/22 03:59:10;;;;;;;3.70;3.40;;;15.90;71.20;;;;;;944619;149;27288;-74
2022/08/22 04:01:39;;;;;;;3.83;3.37;;;15.90;71.40;;;;;;944387;147;27740;-74
2022/08/22 04:04:33;;;;;;;5.07;3.23;;;15.90;71.40;;;;;;946097;149;27342;-74
2022/08/22 04:07:11;;;;;;;3.80;3.33;;;15.90;71.50;;;;;;945055;150;29490;-74
2022/08/22 04:10:09;;;;;;;3.87;3.30;;;15.90;71.20;;;;;;945426;149;27345;-75
2022/08/22 04:12:44;;;;;;;3.60;3.13;;;15.80;71.40;;;;;;930496;149;27245;-76
2022/08/22 04:15:30;;;;;;;3.37;3.03;;;15.80;71.20;;;;;;945182;147;27322;-76
2022/08/22 04:17:58;;;;;;;3.33;3.03;;;15.80;71.50;;;;;;930683;150;27194;-76
2022/08/22 04:20:43;;;;;;;3.30;3.00;;;15.80;71.40;;;;;;945880;150;27401;-76
2022/08/22 04:23:31;;;;;;;3.80;3.40;;;15.80;71.90;;;;;;946291;149;27378;-74
2022/08/22 04:26:01;;;;;;;3.40;3.10;;;15.70;71.40;;;;;;946548;150;27288;-76
2022/08/22 04:28:39;;;;;;;3.27;2.93;;;15.70;71.60;;;;;;934748;149;27364;-76
2022/08/22 04:31:12;;;;;;;3.80;3.40;;;15.70;71.90;;;;;;935942;152;27446;-75
2022/08/22 04:33:38;;;;;;;4.40;4.00;;;15.60;72.10;;;;;;936069;152;27399;-75
2022/08/22 04:36:08;;;;;;;3.90;3.60;;;15.70;72.50;;;;;;933144;152;27371;-75
2022/08/22 04:38:46;;;;;;;4.17;3.77;;;15.60;72.80;;;;;;936348;152;27625;-75
2022/08/22 04:41:24;;;;;;;4.27;3.13;;;15.60;73.20;;;;;;933835;152;27444;-75
2022/08/22 04:44:03;;;;;;;3.20;3.00;;;15.60;73.40;;;;;;927177;152;27387;-76
2022/08/22 04:46:32;;;;;;;4.60;3.40;;;15.70;73.40;;;;;;932857;151;27457;-74
2022/08/22 04:49:01;;;;;;;6.93;4.47;;;15.70;73.40;;;;;;933411;151;27350;-75
2022/08/22 04:51:34;;;;;;;5.37;4.07;;;15.70;73.90;;;;;;934594;152;27831;-75
2022/08/22 04:54:37;;;;;;;4.83;4.17;;;15.80;74.30;;;;;;932504;152;27491;-75
2022/08/22 04:57:31;;;;;;;5.73;4.20;;;15.90;74.30;;;;;;934890;152;27360;-75
2022/08/22 05:00:00;;;;;;;4.80;3.97;;;15.90;74.40;;;;;;935840;152;27358;-75
2022/08/22 05:02:26;;;;;;;3.57;3.27;;;16.10;74.90;;;;;;934557;149;27376;-74
2022/08/22 05:05:06;;;;;;;5.30;3.57;;;16.20;75.70;;;;;;934896;152;27319;-74
2022/08/22 05:07:32;;;;;;;3.67;2.97;;;16.40;76.30;;;;;;933176;152;27348;-74
2022/08/22 05:09:59;;;;;;;3.77;3.45;;;16.60;77.00;;;;;;932533;152;27309;-74
2022/08/22 05:12:28;;;;;;;3.43;3.13;;;16.90;77.50;;;;;;932815;152;27871;-74
2022/08/22 05:14:57;;;;;;;3.25;2.92;;;17.30;77.90;;;;;;932004;152;27342;-74
2022/08/22 05:17:24;;;;;;;3.70;3.33;;;17.70;78.20;;;;;;935342;152;27430;-75
2022/08/22 05:19:50;;;;;;;2.85;2.65;;;18.20;77.90;;;;;;933412;152;27354;-74
2022/08/22 05:22:20;;;;;;;3.08;2.87;;;18.60;77.70;;;;;;933825;152;27371;-74
2022/08/22 05:24:45;;;;;;;2.95;2.72;;;19.20;77.20;;;;;;935641;152;27925;-75
2022/08/22 05:27:10;;;;;;;3.60;3.12;;;19.70;76.40;;;;;;932151;152;27377;-75
2022/08/22 05:29:37;;;;;;;4.30;3.02;;;20.30;75.30;;;;;;944061;149;27867;-75
2022/08/22 05:32:03;;;;;;;3.80;3.20;;;20.90;74.30;;;;;;945642;148;27299;-75
2022/08/22 05:34:30;;;;;;;3.42;3.08;;;21.60;73.10;;;;;;946732;147;27339;-75
2022/08/22 05:37:00;;;;;;;4.28;2.90;;;22.20;71.70;;;;;;943604;149;27227;-75
2022/08/22 05:39:26;;;;;;;3.95;3.12;;;22.80;70.30;;;;;;945585;149;27219;-75
2022/08/22 05:41:53;;;;;;;3.35;3.05;;;23.40;68.90;;;;;;946986;149;27258;-75
2022/08/22 05:44:19;;;;;;;3.30;3.00;;;24.00;67.80;;;;;;946782;149;27228;-75
2022/08/22 05:46:46;;;;;;;3.85;3.00;;;24.60;66.50;;;;;;946100;149;27280;-75
2022/08/22 05:49:13;;;;;;;3.20;2.90;;;25.20;65.30;;;;;;944027;147;27359;-75
2022/08/22 05:51:39;;;;;;;3.42;3.12;;;25.70;64.20;;;;;;945304;150;27357;-75
2022/08/22 05:54:11;;;;;;;3.60;3.08;;;26.30;63.10;;;;;;945569;150;27238;-75
2022/08/22 05:56:41;;;;;;;3.85;3.10;;;26.90;62.10;;;;;;945895;147;27227;-75
2022/08/22 05:59:11;;;;;;;3.30;3.00;;;27.50;61.00;;;;;;945281;149;27256;-75
2022/08/22 06:01:43;;;;;;;3.72;3.08;;;28.10;60.10;;;;;;939935;149;27264;-75
2022/08/22 06:04:28;;;;;;;2.98;2.75;;;28.60;59.20;;;;;;946405;147;27210;-76
2022/08/22 06:07:11;;;;;;;3.33;3.02;;;29.20;58.30;;;;;;946928;149;27271;-75
2022/08/22 06:09:47;;;;;;;3.10;2.90;;;29.90;57.50;;;;;;945253;147;27263;-75
2022/08/22 06:12:20;;;;;;;3.02;2.60;;;30.40;56.40;;;;;;943603;148;27308;-76
2022/08/22 06:14:58;;;;;;;3.10;2.90;;;31.00;55.50;;;;;;944178;149;27335;-76
2022/08/22 06:17:52;;;;;;;4.75;3.02;;;31.50;54.60;;;;;;947231;149;27271;-75
2022/08/22 06:20:31;;;;;;;2.98;2.70;;;32.10;53.80;;;;;;945441;149;27313;-75
2022/08/22 06:22:57;;;;;;;4.17;2.85;;;32.70;52.90;;;;;;945686;149;27695;-75
2022/08/22 06:25:29;;;;;;;3.75;2.70;;;33.20;51.90;;;;;;946499;150;27210;-75
2022/08/22 06:27:56;;;;;;;3.08;2.50;;;33.60;50.80;;;;;;946894;150;27436;-76
2022/08/22 06:30:23;;;;;;;4.40;2.70;;;34.10;50.00;;;;;;957802;148;27237;-76
2022/08/22 06:32:49;;;;;;;3.02;2.67;;;34.60;49.40;;;;;;958496;146;26236;-75
2022/08/22 06:35:19;;;;;;;3.08;2.77;;;35.00;48.60;;;;;;955873;146;27376;-76
2022/08/22 06:37:45;;;;;;;2.62;2.42;;;35.40;48.00;;;;;;957657;148;26144;-76
2022/08/22 06:40:12;;;;;;;2.58;2.33;;;35.90;47.10;;;;;;955725;146;27293;-76
2022/08/22 06:42:41;;;;;;;2.75;2.37;;;36.30;46.30;;;;;;958208;148;26282;-76
2022/08/22 06:45:08;;;;;;;3.10;2.52;;;36.70;45.60;;;;;;955687;148;27288;-76
2022/08/22 06:47:47;;;;;;;2.85;2.35;;;37.10;45.00;;;;;;957262;148;26117;-76
2022/08/22 06:50:13;;;;;;;2.67;2.47;;;37.40;44.40;;;;;;955040;146;26193;-76
2022/08/22 06:53:12;;;;;;;3.37;2.80;;;37.80;43.80;;;;;;957564;148;26154;-76
2022/08/22 06:55:39;;;;;;;3.00;2.75;;;38.10;43.20;;;;;;955213;148;26684;-76
2022/08/22 06:58:05;;;;;;;3.12;2.80;;;38.50;42.70;;;;;;954904;148;26197;-76
2022/08/22 07:00:32;;;;;;;2.83;2.62;;;38.90;42.20;;;;;;956947;148;26239;-76
2022/08/22 07:03:01;;;;;;;3.50;3.00;;;39.20;41.40;;;;;;956455;148;26248;-76
2022/08/22 07:05:28;;;;;;;2.70;2.50;;;39.50;40.80;;;;;;954551;148;26270;-76
2022/08/22 07:07:54;;;;;;;2.60;2.40;;;39.90;40.20;;;;;;956463;148;26259;-76
2022/08/22 07:10:21;;;;;;;3.98;2.37;;;40.20;39.70;;;;;;956648;148;26166;-77
2022/08/22 07:12:48;;;;;;;4.30;2.85;;;40.40;39.30;;;;;;957095;148;26115;-77
2022/08/22 07:15:21;;;;;;;2.70;2.50;;;40.70;38.70;;;;;;957197;146;26158;-76
2022/08/22 07:17:48;;;;;;;3.10;2.80;;;41.00;38.10;;;;;;954122;148;26283;-77
2022/08/22 07:20:20;;;;;;;2.27;2.08;;;41.30;37.40;;;;;;956379;146;26127;-77
2022/08/22 07:22:45;;;;;;;3.15;2.85;;;41.50;37.20;;;;;;953958;148;26104;-77
2022/08/22 07:25:12;;;;;;;3.02;2.65;;;41.80;37.00;;;;;;954778;148;26178;-77
2022/08/22 07:27:53;;;;;;;3.60;2.90;;;42.00;36.50;;;;;;955940;146;26174;-77
2022/08/22 07:30:20;;;;;;;2.60;2.40;;;42.40;36.10;;;;;;957074;148;26224;-77
2022/08/22 07:33:01;;;;;;;2.92;2.70;;;42.60;35.70;;;;;;958876;148;26095;-77
2022/08/22 07:35:28;;;;;;;2.77;2.50;;;43.00;35.20;;;;;;957382;148;26156;-77
2022/08/22 07:37:55;;;;;;;5.97;2.95;;;43.30;35.20;;;;;;955109;145;26278;-77
2022/08/22 07:40:58;;;;;;;3.30;2.55;;;43.50;34.50;;;;;;956328;145;26837;-77
2022/08/22 07:43:30;;;;;;;3.58;2.37;;;43.80;34.10;;;;;;957454;148;26303;-77
2022/08/22 07:45:57;;;;;;;3.40;2.55;;;44.10;33.90;;;;;;955226;148;26755;-77
2022/08/22 07:48:29;;;;;;;2.70;2.10;;;44.40;33.40;;;;;;953006;148;26146;-78
2022/08/22 07:51:08;;;;;;;3.30;2.10;;;44.70;32.90;;;;;;957020;148;26239;-78
2022/08/22 07:53:43;;;;;;;2.17;1.98;;;45.00;32.60;;;;;;955058;148;26188;-78
2022/08/22 07:56:15;;;;;;;2.10;1.92;;;45.30;32.20;;;;;;954419;148;26247;-78
2022/08/22 07:58:42;;;;;;;2.05;1.85;;;45.60;31.90;;;;;;957798;146;26220;-78
2022/08/22 08:01:09;;;;;;;4.10;1.75;;;45.90;31.60;;;;;;957785;148;26213;-78
2022/08/22 08:03:35;;;;;;;3.10;2.08;;;46.10;30.90;;;;;;955518;148;26196;-78
2022/08/22 08:06:02;;;;;;;2.10;1.75;;;46.30;30.60;;;;;;957391;148;26609;-79
2022/08/22 08:08:37;;;;;;;2.00;1.80;;;46.60;30.40;;;;;;956120;148;26715;-78
2022/08/22 08:11:04;;;;;;;2.30;2.10;;;46.80;30.10;;;;;;959260;148;26246;-78
2022/08/22 08:13:34;;;;;;;2.25;2.00;;;47.10;29.90;;;;;;957333;146;26251;-78
2022/08/22 08:16:00;;;;;;;3.12;2.17;;;47.20;29.60;;;;;;955520;146;26757;-78
2022/08/22 08:18:26;;;;;;;2.80;1.62;;;47.40;29.40;;;;;;957840;148;26286;-79
2022/08/22 08:20:59;;;;;;;2.55;1.80;;;47.50;29.00;;;;;;958181;148;26105;-79
2022/08/22 08:23:25;;;;;;;5.70;2.20;;;47.70;28.90;;;;;;956036;147;26443;-79
2022/08/22 08:25:55;;;;;;;1.72;1.62;;;47.70;28.60;;;;;;954782;147;26288;-78
2022/08/22 08:28:33;;;;;;;4.10;1.72;;;47.80;28.40;;;;;;957180;148;26204;-79
2022/08/22 08:31:08;;;;;;;2.70;2.02;;;47.90;28.30;;;;;;948399;147;26209;-79
2022/08/22 08:33:32;;;;;;;2.35;1.90;;;47.90;28.20;;;;;;944085;150;26146;-79
2022/08/22 08:36:16;;;;;;;2.83;1.87;;;47.90;28.00;;;;;;945792;150;26137;-79
2022/08/22 08:38:47;;;;;;;3.87;2.02;;;47.80;27.80;;;;;;944770;149;26299;-79
2022/08/22 08:41:24;;;;;;;6.55;1.65;;;47.70;27.80;;;;;;945718;149;26246;-79
2022/08/22 08:44:21;;;;;;;1.90;1.70;;;47.70;27.70;;;;;;947162;147;26121;-79
2022/08/22 08:47:16;;;;;;;1.80;1.70;;;47.60;27.60;;;;;;946622;150;26173;-79
2022/08/22 08:50:13;;;;;;;2.37;1.87;;;47.40;27.40;;;;;;944609;150;26194;-79
2022/08/22 08:53:01;;;;;;;1.92;1.65;;;47.30;27.30;;;;;;946033;150;26226;-79
2022/08/22 08:55:27;;;;;;;2.27;1.80;;;47.10;27.30;;;;;;945995;149;26171;-78
2022/08/22 08:57:59;;;;;;;2.60;1.67;;;46.90;27.20;;;;;;908134;149;26269;-79
2022/08/22 09:00:44;;;;;;;2.37;1.70;;;46.60;26.50;;;;;;941114;150;26184;-79
2022/08/22 09:03:16;;;;;;;3.72;1.90;;;46.40;27.10;;;;;;943223;150;26261;-79
2022/08/22 09:05:45;;;;;;;1.70;1.60;;;46.20;27.10;;;;;;944116;149;26247;-78
2022/08/22 09:08:12;;;;;;;1.80;1.70;;;45.90;27.00;;;;;;946074;147;26289;-79
2022/08/22 09:11:03;;;;;;;2.40;1.80;;;45.80;26.90;;;;;;945650;147;26105;-78
2022/08/22 09:13:48;;;;;;;1.70;1.42;;;45.60;26.80;;;;;;947418;150;26766;-79
2022/08/22 09:16:39;;;;;;;1.90;1.75;;;45.30;26.90;;;;;;945066;149;26119;-79
2022/08/22 09:19:11;;;;;;;1.57;1.47;;;45.00;27.10;;;;;;945484;150;26172;-78
2022/08/22 09:21:44;;;;;;;1.70;1.60;;;44.80;27.30;;;;;;945216;150;26266;-78
2022/08/22 09:24:16;;;;;;;8.65;1.82;;;44.70;27.50;;;;;;946248;149;26187;-78
2022/08/22 09:26:48;;;;;;;1.52;1.42;;;44.60;27.20;;;;;;945107;149;26169;-79
2022/08/22 09:29:24;;;;;;;2.25;1.70;;;44.50;27.30;;;;;;944997;149;26156;-79
2022/08/22 09:32:06;;;;;;;1.60;1.50;;;44.50;27.10;;;;;;935463;150;26278;-79
2022/08/22 09:34:36;;;;;;;2.42;1.60;;;44.50;27.00;;;;;;936074;152;26415;-79
2022/08/22 09:37:06;;;;;;;2.37;1.35;;;44.30;26.80;;;;;;934163;152;26383;-79
2022/08/22 09:39:34;;;;;;;3.30;1.80;;;44.30;26.90;;;;;;934484;152;26237;-79
2022/08/22 09:42:15;;;;;;;1.57;1.47;;;44.20;27.00;;;;;;934144;152;26596;-79
2022/08/22 09:45:08;;;;;;;2.50;1.45;;;44.00;26.90;;;;;;913260;152;26395;-79
2022/08/22 09:47:44;;;;;;;2.80;1.20;;;43.90;26.90;;;;;;933244;152;26268;-79
2022/08/22 09:50:23;;;;;;;1.40;1.30;;;43.80;26.90;;;;;;934350;152;26259;-79
2022/08/22 09:53:10;;;;;;;1.40;1.30;;;43.60;26.90;;;;;;934030;152;26293;-79
2022/08/22 09:55:39;;;;;;;1.90;1.30;;;43.50;26.70;;;;;;932968;152;26298;-79
2022/08/22 09:58:11;;;;;;;1.67;1.57;;;43.30;26.70;;;;;;935735;152;26246;-79
2022/08/22 10:00:45;;;;;;;2.58;1.37;;;43.10;26.50;;;;;;925361;152;26337;-79
2022/08/22 10:03:13;;;;;;;5.03;1.90;;;42.90;26.60;;;;;;934431;152;26263;-79
2022/08/22 10:05:43;;;;;;;1.82;1.67;;;42.60;26.60;;;;;;932675;149;26303;-79
2022/08/22 10:08:15;;;;;;;1.22;1.12;;;42.20;26.40;;;;;;935845;151;26239;-79
2022/08/22 10:10:56;;;;;;;1.35;1.25;;;41.90;26.40;;;;;;933031;152;26348;-79
2022/08/22 10:13:47;;;;;;;2.25;1.50;;;41.40;26.50;;;;;;933711;152;26605;-79
2022/08/22 10:16:41;;;;;;;1.57;1.27;;;41.00;26.50;;;;;;936077;152;26247;-79
2022/08/22 10:19:10;;;;;;;1.85;1.57;;;40.50;26.60;;;;;;888411;157;26544;-79
2022/08/22 10:22:04;;;;;;;2.33;1.47;;;40.10;26.80;;;;;;922716;151;27815;-79
2022/08/22 10:24:52;;;;;;;3.00;1.47;;;39.70;26.90;;;;;;958172;145;26231;-78
2022/08/22 10:27:18;;;;;;;2.62;1.25;;;39.20;26.90;;;;;;958139;144;27292;-78
2022/08/22 10:29:45;;;;;;;1.32;1.22;;;38.80;27.00;;;;;;957838;144;27393;-78
2022/08/22 10:32:30;;;;;;;2.15;1.70;;;38.40;27.00;;;;;;954337;144;27413;-78
2022/08/22 10:34:59;;;;;;;1.67;1.45;;;38.10;27.20;;;;;;954963;147;27428;-78
2022/08/22 10:37:29;;;;;;;1.77;1.50;;;37.70;27.40;;;;;;936026;146;27416;-78
2022/08/22 10:40:03;;;;;;;1.95;1.25;;;37.30;27.30;;;;;;953507;149;27340;-78
2022/08/22 10:42:32;;;;;;;1.75;1.40;;;36.90;27.50;;;;;;954731;149;28099;-78
2022/08/22 10:45:08;;;;;;;1.92;1.40;;;36.50;27.90;;;;;;954617;149;27279;-78
2022/08/22 10:47:37;;;;;;;1.85;1.40;;;36.20;28.10;;;;;;952985;149;27394;-78
2022/08/22 10:50:06;;;;;;;5.47;1.40;;;36.00;28.10;;;;;;952161;149;27420;-78
2022/08/22 10:52:33;;;;;;;1.98;1.50;;;35.70;28.20;;;;;;952493;149;27431;-78
2022/08/22 10:55:12;;;;;;;2.52;1.60;;;35.40;28.10;;;;;;955433;149;27409;-78
2022/08/22 10:57:53;;;;;;;2.77;1.87;;;35.30;28.20;;;;;;955918;146;27289;-78
2022/08/22 11:00:41;;;;;;;2.22;1.52;;;35.00;28.50;;;;;;953508;147;27274;-78
2022/08/22 11:03:13;;;;;;;1.80;1.27;;;34.90;28.60;;;;;;956938;149;27378;-78
2022/08/22 11:05:46;;;;;;;2.65;1.37;;;34.80;28.80;;;;;;954285;146;27302;-78
2022/08/22 11:08:19;;;;;;;2.47;1.47;;;34.70;28.90;;;;;;953927;146;27401;-78
2022/08/22 11:11:00;;;;;;;1.90;1.57;;;34.70;28.80;;;;;;954788;149;27376;-78
2022/08/22 11:13:45;;;;;;;2.37;1.37;;;34.70;28.90;;;;;;953738;149;27297;-78
2022/08/22 11:16:49;;;;;;;3.10;1.65;;;34.60;28.90;;;;;;952592;148;27613;-78
2022/08/22 11:19:34;;;;;;;1.47;1.37;;;34.50;29.00;;;;;;954913;149;27309;-78
2022/08/22 11:22:29;;;;;;;1.60;1.50;;;34.50;29.20;;;;;;955385;148;28051;-78
2022/08/22 11:25:01;;;;;;;1.60;1.50;;;34.40;29.30;;;;;;955314;148;27371;-78
2022/08/22 11:27:55;;;;;;;2.42;1.40;;;34.40;29.40;;;;;;953035;149;27295;-78
2022/08/22 11:30:30;;;;;;;1.80;1.30;;;34.40;29.40;;;;;;948569;149;27311;-78
2022/08/22 11:33:09;;;;;;;2.65;1.60;;;34.40;29.40;;;;;;950848;145;27380;-78
2022/08/22 11:35:41;;;;;;;3.87;1.50;;;34.40;30.00;;;;;;949172;145;27382;-78
2022/08/22 11:38:29;;;;;;;1.85;1.55;;;34.40;29.50;;;;;;951147;145;27306;-78
2022/08/22 11:41:04;;;;;;;1.47;1.37;;;34.30;29.20;;;;;;952134;145;27430;-78
2022/08/22 11:43:34;;;;;;;1.60;1.47;;;34.20;29.30;;;;;;950779;145;27331;-78
2022/08/22 11:46:00;;;;;;;1.90;1.75;;;34.20;29.40;;;;;;949407;145;27498;-78
2022/08/22 11:48:33;;;;;;;2.42;1.80;;;34.00;29.40;;;;;;947360;145;27274;-78
2022/08/22 11:51:24;;;;;;;2.10;1.50;;;33.90;29.50;;;;;;949579;146;27235;-78
2022/08/22 11:53:53;;;;;;;2.58;1.30;;;33.80;29.60;;;;;;950388;146;27260;-78
2022/08/22 11:56:25;;;;;;;1.70;1.40;;;33.70;29.60;;;;;;951604;145;27365;-78
2022/08/22 11:59:07;;;;;;;2.30;1.70;;;33.60;29.70;;;;;;948855;146;27324;-78
2022/08/22 12:01:37;;;;;;;2.92;1.47;;;33.50;29.60;;;;;;949557;145;27421;-78
2022/08/22 12:04:06;;;;;;;3.05;1.52;;;33.50;29.80;;;;;;951084;146;27306;-78
2022/08/22 12:06:51;;;;;;;1.65;1.40;;;33.40;29.80;;;;;;951284;145;27300;-78
2022/08/22 12:09:17;;;;;;;1.25;1.12;;;33.30;29.80;;;;;;952588;145;27345;-78
2022/08/22 12:12:09;;;;;;;2.80;1.60;;;33.10;29.80;;;;;;950407;145;28481;-78
2022/08/22 12:14:41;;;;;;;1.37;1.22;;;33.00;29.90;;;;;;950775;146;27344;-78
2022/08/22 12:17:45;;;;;;;3.22;1.98;;;32.90;29.90;;;;;;950208;146;27795;-77
2022/08/22 12:20:42;;;;;;;2.95;1.62;;;32.80;30.00;;;;;;951237;145;27361;-78
2022/08/22 12:23:26;;;;;;;1.65;1.55;;;32.60;30.00;;;;;;951627;145;27333;-78
2022/08/22 12:26:11;;;;;;;1.47;1.35;;;32.50;30.10;;;;;;950520;146;27267;-77
2022/08/22 12:28:40;;;;;;;1.37;1.27;;;32.40;30.10;;;;;;952097;145;27296;-77
2022/08/22 12:31:18;;;;;;;1.42;1.32;;;32.20;30.10;;;;;;945914;149;27430;-78
2022/08/22 12:33:48;;;;;;;2.45;1.10;;;32.10;30.00;;;;;;949454;145;27757;-78
2022/08/22 12:36:17;;;;;;;1.62;1.32;;;32.00;30.20;;;;;;949129;145;27362;-78
2022/08/22 12:38:53;;;;;;;1.07;1.07;;;32.00;30.30;;;;;;948909;145;27383;-77
2022/08/22 12:41:37;;;;;;;1.87;1.30;;;32.00;30.30;;;;;;950174;145;27359;-78
2022/08/22 12:44:09;;;;;;;2.75;1.50;;;32.00;30.30;;;;;;951465;146;27407;-77
2022/08/22 12:46:42;;;;;;;1.82;1.37;;;32.10;30.40;;;;;;948963;145;27269;-78
2022/08/22 12:49:18;;;;;;;4.70;1.80;;;32.20;30.40;;;;;;949496;145;27304;-78
2022/08/22 12:51:45;;;;;;;1.90;1.35;;;32.20;30.40;;;;;;950774;145;27717;-78
2022/08/22 12:54:26;;;;;;;2.72;1.60;;;32.30;30.50;;;;;;949719;145;27808;-77
2022/08/22 12:57:11;;;;;;;1.50;1.30;;;32.30;30.30;;;;;;951325;145;27450;-78
2022/08/22 12:59:41;;;;;;;1.72;1.20;;;32.40;30.40;;;;;;950889;145;27273;-78
2022/08/22 13:02:25;;;;;;;1.60;1.45;;;32.40;30.40;;;;;;948268;146;27305;-78
2022/08/22 13:04:52;;;;;;;3.00;1.22;;;32.40;30.40;;;;;;952590;145;27357;-78
2022/08/22 13:07:34;;;;;;;2.90;1.50;;;32.50;30.30;;;;;;951755;145;27348;-78
2022/08/22 13:10:03;;;;;;;2.50;1.50;;;32.60;30.30;;;;;;951532;145;27418;-78
2022/08/22 13:12:29;;;;;;;1.55;1.10;;;32.60;30.10;;;;;;950123;145;27290;-78
2022/08/22 13:14:56;;;;;;;2.08;1.52;;;32.70;30.10;;;;;;948612;145;27317;-78
2022/08/22 13:17:22;;;;;;;1.75;1.30;;;32.70;30.50;;;;;;952931;145;27267;-77
2022/08/22 13:20:01;;;;;;;1.40;1.30;;;32.70;30.00;;;;;;950647;146;27288;-78
2022/08/22 13:22:28;;;;;;;2.80;1.40;;;32.70;30.00;;;;;;950048;145;27337;-78
2022/08/22 13:24:58;;;;;;;1.17;1.07;;;32.80;30.30;;;;;;951409;145;27325;-78
2022/08/22 13:27:27;;;;;;;1.62;1.27;;;32.80;30.20;;;;;;950188;145;28052;-78
2022/08/22 13:29:56;;;;;;;2.00;1.50;;;32.70;30.00;;;;;;949066;145;27275;-78